sensor_id;sensor_type;location;lat;lon;timestamp;pressure;altitude;pressure_sealevel;temperature;humidity
11198;BME280;5655;48.744;9.162;2022-08-23T00:00:43;96120.94;;;20.05;100.00
11198;BME280;5655;48.744;9.162;2022-08-23T00:03:09;96120.25;;;20.01;100.00
11198;BME280;5655;48.744;9.162;2022-08-23T00:05:35;96123.44;;;20.12;100.00
11198;BME280;5655;48.744;9.162;2022-08-23T00:08:00;96127.88;;;20.35;100.00
11198;BME280;5655;48.744;9.162;2022-08-23T00:10:26;96121.16;;;20.40;100.00
11198;BME280;5655;48.744;9.162;2022-08-23T00:12:52;96118.84;;;20.38;100.00
11198;BME280;5655;48.744;9.162;2022-08-23T00:15:19;96119.09;;;20.44;100.00
11198;BME280;5655;48.744;9.162;2022-08-23T00:17:45;96112.25;;;20.64;100.00
11198;BME280;5655;48.744;9.162;2022-08-23T00:20:14;96114.84;;;20.55;100.00
11198;BME280;5655;48.744;9.162;2022-08-23T00:22:40;96114.25;;;20.22;100.00
11198;BME280;5655;48.744;9.162;2022-08-23T00:25:07;96113.88;;;20.20;100.00
11198;BME280;5655;48.744;9.162;2022-08-23T00:27:34;96115.75;;;20.23;100.00
11198;BME280;5655;48.744;9.162;2022-08-23T00:30:00;96101.25;;;20.01;100.00
11198;BME280;5655;48.744;9.162;2022-08-23T00:32:31;96102.03;;;20.14;100.00
11198;BME280;5655;48.744;9.162;2022-08-23T00:34:58;96096.59;;;20.14;100.00
11198;BME280;5655;48.744;9.162;2022-08-23T00:37:24;96100.34;;;20.33;100.00
11198;BME280;5655;48.744;9.162;2022-08-23T00:39:50;96099.06;;;19.96;100.00
11198;BME280;5655;48.744;9.162;2022-08-23T00:45:12;96107.47;;;20.14;100.00
11198;BME280;5655;48.744;9.162;2022-08-23T00:47:59;96105.47;;;20.02;100.00
11198;BME280;5655;48.744;9.162;2022-08-23T00:50:40;96099.97;;;20.18;100.00
11198;BME280;5655;48.744;9.162;2022-08-23T00:53:11;96097.66;;;20.04;100.00
11198;BME280;5655;48.744;9.162;2022-08-23T00:55:41;96100.59;;;19.81;100.00
11198;BME280;5655;48.744;9.162;2022-08-23T00:58:08;96109.38;;;19.72;100.00
11198;BME280;5655;48.744;9.162;2022-08-23T01:00:34;96111.66;;;19.74;100.00
11198;BME280;5655;48.744;9.162;2022-08-23T01:03:01;96105.78;;;19.91;100.00
11198;BME280;5655;48.744;9.162;2022-08-23T01:05:35;96100.03;;;20.02;100.00
11198;BME280;5655;48.744;9.162;2022-08-23T01:08:07;96105.66;;;19.95;100.00
11198;BME280;5655;48.744;9.162;2022-08-23T01:10:41;96108.25;;;19.86;100.00
11198;BME280;5655;48.744;9.162;2022-08-23T01:13:11;96108.59;;;19.72;100.00
11198;BME280;5655;48.744;9.162;2022-08-23T01:15:43;96104.25;;;19.62;100.00
11198;BME280;5655;48.744;9.162;2022-08-23T01:18:10;96100.50;;;19.56;100.00
11198;BME280;5655;48.744;9.162;2022-08-23T01:20:43;96104.13;;;19.65;100.00
11198;BME280;5655;48.744;9.162;2022-08-23T01:26:03;96102.94;;;19.95;100.00
11198;BME280;5655;48.744;9.162;2022-08-23T01:28:28;96099.78;;;19.84;100.00
11198;BME280;5655;48.744;9.162;2022-08-23T01:30:54;96099.19;;;19.76;100.00
11198;BME280;5655;48.744;9.162;2022-08-23T01:33:19;96103.75;;;20.08;100.00
11198;BME280;5655;48.744;9.162;2022-08-23T01:35:52;96099.84;;;20.09;100.00
11198;BME280;5655;48.744;9.162;2022-08-23T01:38:18;96097.91;;;19.81;100.00
11198;BME280;5655;48.744;9.162;2022-08-23T01:40:44;96104.50;;;19.67;100.00
11198;BME280;5655;48.744;9.162;2022-08-23T01:43:11;96097.63;;;19.46;100.00
11198;BME280;5655;48.744;9.162;2022-08-23T01:45:38;96092.97;;;19.47;100.00
11198;BME280;5655;48.744;9.162;2022-08-23T01:48:03;96099.31;;;19.40;100.00
11198;BME280;5655;48.744;9.162;2022-08-23T01:50:28;96102.38;;;19.42;100.00
11198;BME280;5655;48.744;9.162;2022-08-23T01:52:54;96105.06;;;19.42;100.00
11198;BME280;5655;48.744;9.162;2022-08-23T01:55:20;96100.84;;;19.41;100.00
11198;BME280;5655;48.744;9.162;2022-08-23T01:57:48;96106.94;;;19.62;100.00
11198;BME280;5655;48.744;9.162;2022-08-23T02:00:14;96116.38;;;19.57;100.00
11198;BME280;5655;48.744;9.162;2022-08-23T02:02:40;96110.69;;;19.35;100.00
11198;BME280;5655;48.744;9.162;2022-08-23T02:05:06;96108.31;;;19.37;100.00
11198;BME280;5655;48.744;9.162;2022-08-23T02:07:32;96106.09;;;19.16;100.00
11198;BME280;5655;48.744;9.162;2022-08-23T02:09:57;96117.66;;;19.36;100.00
11198;BME280;5655;48.744;9.162;2022-08-23T02:12:23;96116.72;;;19.27;100.00
11198;BME280;5655;48.744;9.162;2022-08-23T02:14:48;96110.94;;;19.25;100.00
11198;BME280;5655;48.744;9.162;2022-08-23T02:17:13;96114.41;;;19.25;100.00
11198;BME280;5655;48.744;9.162;2022-08-23T02:19:41;96116.47;;;19.21;100.00
11198;BME280;5655;48.744;9.162;2022-08-23T02:22:07;96119.44;;;19.11;100.00
11198;BME280;5655;48.744;9.162;2022-08-23T02:24:33;96123.06;;;18.88;100.00
11198;BME280;5655;48.744;9.162;2022-08-23T02:27:02;96114.53;;;19.06;100.00
11198;BME280;5655;48.744;9.162;2022-08-23T02:29:28;96112.22;;;19.20;100.00
11198;BME280;5655;48.744;9.162;2022-08-23T02:31:54;96124.09;;;19.26;100.00
11198;BME280;5655;48.744;9.162;2022-08-23T02:34:20;96118.75;;;19.07;100.00
11198;BME280;5655;48.744;9.162;2022-08-23T02:36:46;96120.22;;;19.11;100.00
11198;BME280;5655;48.744;9.162;2022-08-23T02:39:13;96124.84;;;18.94;100.00
11198;BME280;5655;48.744;9.162;2022-08-23T02:41:38;96128.66;;;18.81;100.00
11198;BME280;5655;48.744;9.162;2022-08-23T02:44:05;96119.84;;;18.93;100.00
11198;BME280;5655;48.744;9.162;2022-08-23T02:46:30;96120.00;;;18.86;100.00
11198;BME280;5655;48.744;9.162;2022-08-23T02:48:56;96119.19;;;18.89;100.00
11198;BME280;5655;48.744;9.162;2022-08-23T02:51:21;96129.25;;;18.72;100.00
11198;BME280;5655;48.744;9.162;2022-08-23T02:53:47;96122.69;;;18.70;100.00
11198;BME280;5655;48.744;9.162;2022-08-23T02:56:12;96130.50;;;18.68;100.00
11198;BME280;5655;48.744;9.162;2022-08-23T02:58:38;96138.00;;;18.40;100.00
11198;BME280;5655;48.744;9.162;2022-08-23T03:01:04;96137.59;;;18.62;100.00
11198;BME280;5655;48.744;9.162;2022-08-23T03:03:29;96131.69;;;18.67;100.00
11198;BME280;5655;48.744;9.162;2022-08-23T03:05:55;96124.53;;;18.56;100.00
11198;BME280;5655;48.744;9.162;2022-08-23T03:08:22;96127.25;;;18.56;100.00
11198;BME280;5655;48.744;9.162;2022-08-23T03:10:49;96131.47;;;18.57;100.00
11198;BME280;5655;48.744;9.162;2022-08-23T03:13:16;96132.19;;;18.78;100.00
11198;BME280;5655;48.744;9.162;2022-08-23T03:15:41;96130.63;;;18.61;100.00
11198;BME280;5655;48.744;9.162;2022-08-23T03:18:07;96137.84;;;18.47;100.00
11198;BME280;5655;48.744;9.162;2022-08-23T03:20:33;96134.00;;;18.29;100.00
11198;BME280;5655;48.744;9.162;2022-08-23T03:22:59;96144.41;;;18.50;100.00
11198;BME280;5655;48.744;9.162;2022-08-23T03:25:25;96140.19;;;18.85;100.00
11198;BME280;5655;48.744;9.162;2022-08-23T03:27:50;96140.53;;;19.03;100.00
11198;BME280;5655;48.744;9.162;2022-08-23T03:30:16;96134.88;;;19.14;100.00
11198;BME280;5655;48.744;9.162;2022-08-23T03:32:41;96129.69;;;19.35;100.00
11198;BME280;5655;48.744;9.162;2022-08-23T03:35:07;96130.22;;;19.46;100.00
11198;BME280;5655;48.744;9.162;2022-08-23T03:37:33;96137.06;;;19.51;100.00
11198;BME280;5655;48.744;9.162;2022-08-23T03:39:58;96133.31;;;19.29;100.00
11198;BME280;5655;48.744;9.162;2022-08-23T03:42:24;96138.34;;;19.30;100.00
11198;BME280;5655;48.744;9.162;2022-08-23T03:44:49;96133.44;;;19.41;100.00
11198;BME280;5655;48.744;9.162;2022-08-23T03:47:15;96133.38;;;19.45;100.00
11198;BME280;5655;48.744;9.162;2022-08-23T03:49:40;96131.66;;;19.51;100.00
11198;BME280;5655;48.744;9.162;2022-08-23T03:52:06;96134.69;;;19.69;100.00
11198;BME280;5655;48.744;9.162;2022-08-23T03:54:33;96145.78;;;19.75;100.00
11198;BME280;5655;48.744;9.162;2022-08-23T03:57:02;96137.41;;;19.69;100.00
11198;BME280;5655;48.744;9.162;2022-08-23T03:59:29;96143.19;;;19.55;100.00
11198;BME280;5655;48.744;9.162;2022-08-23T04:01:55;96144.28;;;19.41;100.00
11198;BME280;5655;48.744;9.162;2022-08-23T04:04:21;96159.03;;;19.40;100.00
11198;BME280;5655;48.744;9.162;2022-08-23T04:06:46;96154.69;;;18.94;100.00
11198;BME280;5655;48.744;9.162;2022-08-23T04:09:12;96149.59;;;18.96;100.00
11198;BME280;5655;48.744;9.162;2022-08-23T04:11:38;96158.00;;;19.02;100.00
11198;BME280;5655;48.744;9.162;2022-08-23T04:14:04;96159.03;;;19.08;100.00
11198;BME280;5655;48.744;9.162;2022-08-23T04:16:31;96159.69;;;19.12;100.00
11198;BME280;5655;48.744;9.162;2022-08-23T04:19:05;96161.91;;;19.17;100.00
11198;BME280;5655;48.744;9.162;2022-08-23T04:21:31;96161.22;;;19.13;100.00
11198;BME280;5655;48.744;9.162;2022-08-23T04:23:56;96151.72;;;18.89;100.00
11198;BME280;5655;48.744;9.162;2022-08-23T04:26:22;96156.03;;;18.86;100.00
11198;BME280;5655;48.744;9.162;2022-08-23T04:28:48;96163.63;;;19.11;100.00
11198;BME280;5655;48.744;9.162;2022-08-23T04:31:14;96159.97;;;18.66;100.00
11198;BME280;5655;48.744;9.162;2022-08-23T04:33:40;96164.97;;;18.47;100.00
11198;BME280;5655;48.744;9.162;2022-08-23T04:36:05;96167.22;;;18.52;100.00
11198;BME280;5655;48.744;9.162;2022-08-23T04:38:31;96172.47;;;18.79;100.00
11198;BME280;5655;48.744;9.162;2022-08-23T04:40:57;96170.03;;;19.01;100.00
11198;BME280;5655;48.744;9.162;2022-08-23T04:43:42;96180.44;;;18.47;100.00
11198;BME280;5655;48.744;9.162;2022-08-23T04:46:08;96179.72;;;18.46;100.00
11198;BME280;5655;48.744;9.162;2022-08-23T04:48:34;96185.06;;;18.50;100.00
11198;BME280;5655;48.744;9.162;2022-08-23T04:51:00;96189.88;;;18.62;100.00
11198;BME280;5655;48.744;9.162;2022-08-23T04:53:25;96192.06;;;18.47;100.00
11198;BME280;5655;48.744;9.162;2022-08-23T04:55:54;96197.03;;;18.52;100.00
11198;BME280;5655;48.744;9.162;2022-08-23T04:58:19;96200.44;;;18.56;100.00
11198;BME280;5655;48.744;9.162;2022-08-23T05:00:48;96204.59;;;18.81;100.00
11198;BME280;5655;48.744;9.162;2022-08-23T05:03:14;96203.75;;;18.84;100.00
11198;BME280;5655;48.744;9.162;2022-08-23T05:05:39;96197.63;;;18.80;100.00
11198;BME280;5655;48.744;9.162;2022-08-23T05:08:06;96202.03;;;18.90;100.00
11198;BME280;5655;48.744;9.162;2022-08-23T05:10:31;96201.13;;;18.96;100.00
11198;BME280;5655;48.744;9.162;2022-08-23T05:12:57;96200.72;;;18.98;100.00
11198;BME280;5655;48.744;9.162;2022-08-23T05:15:22;96199.00;;;18.88;100.00
11198;BME280;5655;48.744;9.162;2022-08-23T05:17:47;96194.94;;;18.96;100.00
11198;BME280;5655;48.744;9.162;2022-08-23T05:20:13;96211.38;;;18.89;100.00
11198;BME280;5655;48.744;9.162;2022-08-23T05:22:40;96206.09;;;19.18;100.00
11198;BME280;5655;48.744;9.162;2022-08-23T05:25:05;96204.16;;;19.34;100.00
11198;BME280;5655;48.744;9.162;2022-08-23T05:27:31;96204.16;;;19.34;100.00
11198;BME280;5655;48.744;9.162;2022-08-23T05:29:56;96206.31;;;19.43;100.00
11198;BME280;5655;48.744;9.162;2022-08-23T05:32:22;96204.16;;;19.34;100.00
11198;BME280;5655;48.744;9.162;2022-08-23T05:34:48;96210.16;;;19.26;100.00
11198;BME280;5655;48.744;9.162;2022-08-23T05:37:14;96205.59;;;19.39;100.00
11198;BME280;5655;48.744;9.162;2022-08-23T05:39:40;96208.53;;;19.48;100.00
11198;BME280;5655;48.744;9.162;2022-08-23T05:42:08;96212.00;;;19.65;100.00
11198;BME280;5655;48.744;9.162;2022-08-23T05:44:34;96207.84;;;19.44;100.00
11198;BME280;5655;48.744;9.162;2022-08-23T05:46:59;96206.06;;;19.54;100.00
11198;BME280;5655;48.744;9.162;2022-08-23T05:49:24;96211.06;;;19.71;100.00
11198;BME280;5655;48.744;9.162;2022-08-23T05:51:50;96208.03;;;19.98;100.00
11198;BME280;5655;48.744;9.162;2022-08-23T05:54:15;96213.31;;;20.05;100.00
11198;BME280;5655;48.744;9.162;2022-08-23T05:56:42;96220.28;;;20.06;100.00
11198;BME280;5655;48.744;9.162;2022-08-23T05:59:10;96225.72;;;20.06;100.00
11198;BME280;5655;48.744;9.162;2022-08-23T06:01:37;96227.28;;;20.20;100.00
11198;BME280;5655;48.744;9.162;2022-08-23T06:04:05;96235.78;;;20.22;100.00
11198;BME280;5655;48.744;9.162;2022-08-23T06:06:31;96233.66;;;20.29;100.00
11198;BME280;5655;48.744;9.162;2022-08-23T06:08:57;96241.63;;;20.36;100.00
11198;BME280;5655;48.744;9.162;2022-08-23T06:11:25;96237.00;;;20.50;100.00
11198;BME280;5655;48.744;9.162;2022-08-23T06:14:00;96242.25;;;20.57;100.00
11198;BME280;5655;48.744;9.162;2022-08-23T06:16:38;96240.75;;;20.68;100.00
11198;BME280;5655;48.744;9.162;2022-08-23T06:19:06;96241.31;;;20.76;100.00
11198;BME280;5655;48.744;9.162;2022-08-23T06:21:31;96241.25;;;20.92;100.00
11198;BME280;5655;48.744;9.162;2022-08-23T06:23:58;96236.78;;;20.98;100.00
11198;BME280;5655;48.744;9.162;2022-08-23T06:26:26;96240.59;;;20.88;100.00
11198;BME280;5655;48.744;9.162;2022-08-23T06:28:54;96243.69;;;21.15;100.00
11198;BME280;5655;48.744;9.162;2022-08-23T06:31:21;96253.09;;;21.40;100.00
11198;BME280;5655;48.744;9.162;2022-08-23T06:34:07;96247.72;;;21.23;100.00
11198;BME280;5655;48.744;9.162;2022-08-23T06:36:33;96243.00;;;21.11;100.00
11198;BME280;5655;48.744;9.162;2022-08-23T06:39:00;96246.22;;;21.22;100.00
11198;BME280;5655;48.744;9.162;2022-08-23T06:41:26;96248.59;;;21.46;100.00
11198;BME280;5655;48.744;9.162;2022-08-23T06:43:51;96251.53;;;21.64;100.00
11198;BME280;5655;48.744;9.162;2022-08-23T06:46:20;96255.50;;;22.10;100.00
11198;BME280;5655;48.744;9.162;2022-08-23T06:48:46;96251.38;;;22.05;100.00
11198;BME280;5655;48.744;9.162;2022-08-23T06:51:21;96252.22;;;22.15;100.00
11198;BME280;5655;48.744;9.162;2022-08-23T06:53:48;96257.16;;;22.07;100.00
11198;BME280;5655;48.744;9.162;2022-08-23T06:56:13;96256.28;;;22.10;100.00
11198;BME280;5655;48.744;9.162;2022-08-23T06:58:39;96253.28;;;21.96;100.00
11198;BME280;5655;48.744;9.162;2022-08-23T07:01:22;96264.31;;;22.14;100.00
11198;BME280;5655;48.744;9.162;2022-08-23T07:03:59;96258.00;;;22.17;100.00
11198;BME280;5655;48.744;9.162;2022-08-23T07:06:26;96263.66;;;22.23;100.00
11198;BME280;5655;48.744;9.162;2022-08-23T07:08:53;96255.19;;;22.42;100.00
11198;BME280;5655;48.744;9.162;2022-08-23T07:11:19;96263.31;;;22.55;100.00
11198;BME280;5655;48.744;9.162;2022-08-23T07:13:45;96258.13;;;22.70;100.00
11198;BME280;5655;48.744;9.162;2022-08-23T07:16:11;96263.22;;;22.80;100.00
11198;BME280;5655;48.744;9.162;2022-08-23T07:18:37;96266.28;;;22.82;100.00
11198;BME280;5655;48.744;9.162;2022-08-23T07:21:04;96272.41;;;22.95;100.00
11198;BME280;5655;48.744;9.162;2022-08-23T07:23:31;96269.19;;;22.88;100.00
11198;BME280;5655;48.744;9.162;2022-08-23T07:25:58;96279.94;;;23.13;100.00
11198;BME280;5655;48.744;9.162;2022-08-23T07:28:24;96273.38;;;23.01;100.00
11198;BME280;5655;48.744;9.162;2022-08-23T07:30:49;96273.63;;;23.16;100.00
11198;BME280;5655;48.744;9.162;2022-08-23T07:33:14;96278.59;;;23.18;100.00
11198;BME280;5655;48.744;9.162;2022-08-23T07:35:48;96275.31;;;23.54;100.00
11198;BME280;5655;48.744;9.162;2022-08-23T07:38:17;96272.03;;;23.37;100.00
11198;BME280;5655;48.744;9.162;2022-08-23T07:40:43;96273.03;;;23.52;100.00
11198;BME280;5655;48.744;9.162;2022-08-23T07:43:09;96275.88;;;23.79;100.00
11198;BME280;5655;48.744;9.162;2022-08-23T07:45:36;96283.47;;;23.84;100.00
11198;BME280;5655;48.744;9.162;2022-08-23T07:48:01;96277.28;;;24.02;100.00
11198;BME280;5655;48.744;9.162;2022-08-23T07:50:27;96287.91;;;24.00;100.00
11198;BME280;5655;48.744;9.162;2022-08-23T07:52:53;96286.56;;;24.05;100.00
11198;BME280;5655;48.744;9.162;2022-08-23T07:55:18;96284.75;;;24.11;100.00
11198;BME280;5655;48.744;9.162;2022-08-23T07:57:44;96291.13;;;24.08;100.00
11198;BME280;5655;48.744;9.162;2022-08-23T08:00:10;96282.38;;;24.31;100.00
11198;BME280;5655;48.744;9.162;2022-08-23T08:02:35;96290.59;;;24.40;100.00
11198;BME280;5655;48.744;9.162;2022-08-23T08:05:00;96293.34;;;24.76;100.00
11198;BME280;5655;48.744;9.162;2022-08-23T08:07:26;96295.78;;;24.65;100.00
11198;BME280;5655;48.744;9.162;2022-08-23T08:09:52;96303.97;;;24.56;100.00
11198;BME280;5655;48.744;9.162;2022-08-23T08:12:17;96291.81;;;24.66;100.00
11198;BME280;5655;48.744;9.162;2022-08-23T08:14:44;96290.59;;;24.58;100.00
11198;BME280;5655;48.744;9.162;2022-08-23T08:17:09;96300.03;;;24.75;100.00
11198;BME280;5655;48.744;9.162;2022-08-23T08:19:36;96300.00;;;25.03;100.00
11198;BME280;5655;48.744;9.162;2022-08-23T08:22:01;96297.25;;;25.21;100.00
11198;BME280;5655;48.744;9.162;2022-08-23T08:24:26;96302.72;;;25.30;100.00
11198;BME280;5655;48.744;9.162;2022-08-23T08:26:52;96300.91;;;25.27;100.00
11198;BME280;5655;48.744;9.162;2022-08-23T08:29:17;96297.81;;;25.43;100.00
11198;BME280;5655;48.744;9.162;2022-08-23T08:31:43;96303.88;;;25.47;100.00
11198;BME280;5655;48.744;9.162;2022-08-23T08:34:11;96306.31;;;25.54;100.00
11198;BME280;5655;48.744;9.162;2022-08-23T08:36:38;96303.25;;;25.52;100.00
11198;BME280;5655;48.744;9.162;2022-08-23T08:39:07;96310.56;;;25.55;100.00
11198;BME280;5655;48.744;9.162;2022-08-23T08:47:31;96313.22;;;26.06;100.00
11198;BME280;5655;48.744;9.162;2022-08-23T08:52:36;96310.75;;;26.17;100.00
11198;BME280;5655;48.744;9.162;2022-08-23T08:55:10;96319.72;;;26.27;100.00
11198;BME280;5655;48.744;9.162;2022-08-23T08:57:44;96308.84;;;26.56;100.00
11198;BME280;5655;48.744;9.162;2022-08-23T09:00:17;96313.78;;;26.67;100.00
11198;BME280;5655;48.744;9.162;2022-08-23T09:02:43;96320.03;;;26.68;100.00
11198;BME280;5655;48.744;9.162;2022-08-23T09:05:23;96320.25;;;26.79;100.00
11198;BME280;5655;48.744;9.162;2022-08-23T09:19:00;96319.59;;;27.22;100.00
11198;BME280;5655;48.744;9.162;2022-08-23T09:21:26;96323.84;;;27.38;99.77
11198;BME280;5655;48.744;9.162;2022-08-23T09:23:51;96325.44;;;27.44;90.67
11198;BME280;5655;48.744;9.162;2022-08-23T09:26:26;96312.59;;;27.50;93.05
11198;BME280;5655;48.744;9.162;2022-08-23T09:28:53;96327.44;;;27.29;91.92
11198;BME280;5655;48.744;9.162;2022-08-23T09:34:04;96329.44;;;27.43;93.20
11198;BME280;5655;48.744;9.162;2022-08-23T09:36:37;96326.19;;;27.74;88.80
11198;BME280;5655;48.744;9.162;2022-08-23T09:39:25;96323.44;;;27.89;89.22
11198;BME280;5655;48.744;9.162;2022-08-23T09:41:51;96322.28;;;28.30;88.06
11198;BME280;5655;48.744;9.162;2022-08-23T09:44:38;96321.63;;;27.86;76.12
11198;BME280;5655;48.744;9.162;2022-08-23T09:47:10;96325.75;;;28.25;81.09
11198;BME280;5655;48.744;9.162;2022-08-23T09:49:36;96327.66;;;28.39;70.83
11198;BME280;5655;48.744;9.162;2022-08-23T09:52:31;96319.94;;;28.43;72.74
11198;BME280;5655;48.744;9.162;2022-08-23T09:55:05;96319.88;;;28.38;72.34
11198;BME280;5655;48.744;9.162;2022-08-23T09:57:33;96315.66;;;28.77;72.25
11198;BME280;5655;48.744;9.162;2022-08-23T10:02:42;96324.78;;;28.69;63.46
11198;BME280;5655;48.744;9.162;2022-08-23T10:05:39;96328.09;;;28.93;65.06
11198;BME280;5655;48.744;9.162;2022-08-23T10:08:04;96326.00;;;28.88;64.90
11198;BME280;5655;48.744;9.162;2022-08-23T10:12:56;96315.09;;;28.73;73.91
11198;BME280;5655;48.744;9.162;2022-08-23T10:15:35;96314.53;;;29.15;65.37
11198;BME280;5655;48.744;9.162;2022-08-23T10:20:46;96305.38;;;29.04;63.18
11198;BME280;5655;48.744;9.162;2022-08-23T10:25:59;96311.94;;;29.32;62.11
11198;BME280;5655;48.744;9.162;2022-08-23T10:39:51;96297.94;;;29.98;59.52
11198;BME280;5655;48.744;9.162;2022-08-23T10:42:45;96302.91;;;30.42;57.30
11198;BME280;5655;48.744;9.162;2022-08-23T10:48:02;96300.53;;;29.82;54.21
11198;BME280;5655;48.744;9.162;2022-08-23T10:50:58;96291.03;;;30.19;53.60
11198;BME280;5655;48.744;9.162;2022-08-23T10:53:31;96291.72;;;30.57;nan
11198;BME280;5655;48.744;9.162;2022-08-23T10:55:58;96300.59;;;30.30;nan
11198;BME280;5655;48.744;9.162;2022-08-23T10:58:53;96294.63;;;30.37;nan
11198;BME280;5655;48.744;9.162;2022-08-23T11:01:42;96292.47;;;30.57;nan
11198;BME280;5655;48.744;9.162;2022-08-23T11:06:53;96292.84;;;30.98;nan
11198;BME280;5655;48.744;9.162;2022-08-23T11:11:47;96291.66;;;31.33;nan
11198;BME280;5655;48.744;9.162;2022-08-23T11:14:39;96292.91;;;31.10;nan
11198;BME280;5655;48.744;9.162;2022-08-23T11:17:09;96285.31;;;30.93;nan
11198;BME280;5655;48.744;9.162;2022-08-23T11:19:59;96275.28;;;31.13;nan
11198;BME280;5655;48.744;9.162;2022-08-23T11:22:28;96275.81;;;31.44;nan
11198;BME280;5655;48.744;9.162;2022-08-23T11:24:58;96273.31;;;31.63;nan
11198;BME280;5655;48.744;9.162;2022-08-23T11:27:38;96276.09;;;31.58;nan
11198;BME280;5655;48.744;9.162;2022-08-23T11:35:44;96272.47;;;32.24;nan
11198;BME280;5655;48.744;9.162;2022-08-23T11:38:12;96281.88;;;31.65;nan
11198;BME280;5655;48.744;9.162;2022-08-23T11:40:58;96269.56;;;31.61;nan
11198;BME280;5655;48.744;9.162;2022-08-23T11:43:36;96277.56;;;31.81;nan
11198;BME280;5655;48.744;9.162;2022-08-23T11:52:23;96262.13;;;32.30;nan
11198;BME280;5655;48.744;9.162;2022-08-23T12:06:55;96255.19;;;32.59;nan
11198;BME280;5655;48.744;9.162;2022-08-23T12:19:39;96255.84;;;32.81;nan
11198;BME280;5655;48.744;9.162;2022-08-23T12:22:10;96257.75;;;32.51;nan
11198;BME280;5655;48.744;9.162;2022-08-23T12:24:50;96254.81;;;32.84;nan
11198;BME280;5655;48.744;9.162;2022-08-23T12:27:45;96251.88;;;33.18;nan
11198;BME280;5655;48.744;9.162;2022-08-23T12:30:20;96260.03;;;32.99;nan
11198;BME280;5655;48.744;9.162;2022-08-23T12:33:06;96249.59;;;33.11;nan
11198;BME280;5655;48.744;9.162;2022-08-23T12:38:56;96256.63;;;33.53;nan
11198;BME280;5655;48.744;9.162;2022-08-23T12:41:30;96243.34;;;33.70;nan
11198;BME280;5655;48.744;9.162;2022-08-23T12:44:05;96255.13;;;33.22;nan
11198;BME280;5655;48.744;9.162;2022-08-23T12:46:43;96250.31;;;33.22;nan
11198;BME280;5655;48.744;9.162;2022-08-23T12:49:21;96239.78;;;33.45;nan
11198;BME280;5655;48.744;9.162;2022-08-23T12:51:56;96244.66;;;33.63;nan
11198;BME280;5655;48.744;9.162;2022-08-23T12:54:36;96249.00;;;33.29;nan
11198;BME280;5655;48.744;9.162;2022-08-23T12:57:03;96245.38;;;33.40;nan
11198;BME280;5655;48.744;9.162;2022-08-23T12:59:39;96237.47;;;33.49;nan
11198;BME280;5655;48.744;9.162;2022-08-23T13:02:10;96239.50;;;33.79;nan
11198;BME280;5655;48.744;9.162;2022-08-23T13:04:38;96233.06;;;33.89;nan
11198;BME280;5655;48.744;9.162;2022-08-23T13:07:06;96233.03;;;34.13;nan
11198;BME280;5655;48.744;9.162;2022-08-23T13:09:38;96237.13;;;33.58;nan
11198;BME280;5655;48.744;9.162;2022-08-23T13:12:06;96232.72;;;33.44;nan
11198;BME280;5655;48.744;9.162;2022-08-23T13:17:15;96244.03;;;33.82;nan
11198;BME280;5655;48.744;9.162;2022-08-23T13:19:41;96238.03;;;33.07;nan
11198;BME280;5655;48.744;9.162;2022-08-23T13:22:31;96234.19;;;33.21;nan
11198;BME280;5655;48.744;9.162;2022-08-23T13:40:38;96225.22;;;33.39;nan
11198;BME280;5655;48.744;9.162;2022-08-23T13:43:06;96227.78;;;32.96;nan
11198;BME280;5655;48.744;9.162;2022-08-23T13:45:35;96222.19;;;32.61;nan
11198;BME280;5655;48.744;9.162;2022-08-23T13:48:15;96223.22;;;32.52;nan
11198;BME280;5655;48.744;9.162;2022-08-23T13:50:42;96223.72;;;32.56;nan
11198;BME280;5655;48.744;9.162;2022-08-23T13:53:09;96218.06;;;32.26;nan
11198;BME280;5655;48.744;9.162;2022-08-23T13:55:40;96225.22;;;32.57;nan
11198;BME280;5655;48.744;9.162;2022-08-23T13:58:12;96222.78;;;32.37;nan
11198;BME280;5655;48.744;9.162;2022-08-23T14:00:38;96226.19;;;32.13;nan
11198;BME280;5655;48.744;9.162;2022-08-23T14:03:04;96232.97;;;32.18;nan
11198;BME280;5655;48.744;9.162;2022-08-23T14:05:30;96230.94;;;32.07;nan
11198;BME280;5655;48.744;9.162;2022-08-23T14:07:55;96221.41;;;32.14;nan
11198;BME280;5655;48.744;9.162;2022-08-23T14:10:21;96221.81;;;32.34;nan
11198;BME280;5655;48.744;9.162;2022-08-23T14:12:49;96221.50;;;31.58;nan
11198;BME280;5655;48.744;9.162;2022-08-23T14:15:16;96222.00;;;31.62;nan
11198;BME280;5655;48.744;9.162;2022-08-23T14:17:44;96222.25;;;31.47;nan
11198;BME280;5655;48.744;9.162;2022-08-23T14:20:14;96215.69;;;31.28;nan
11198;BME280;5655;48.744;9.162;2022-08-23T14:22:40;96219.22;;;31.40;nan
11198;BME280;5655;48.744;9.162;2022-08-23T14:25:06;96215.44;;;31.43;nan
11198;BME280;5655;48.744;9.162;2022-08-23T14:27:32;96213.44;;;31.49;nan
11198;BME280;5655;48.744;9.162;2022-08-23T14:29:58;96208.94;;;31.57;nan
11198;BME280;5655;48.744;9.162;2022-08-23T14:32:23;96215.44;;;31.43;nan
11198;BME280;5655;48.744;9.162;2022-08-23T14:34:49;96209.41;;;31.50;nan
11198;BME280;5655;48.744;9.162;2022-08-23T14:37:14;96208.94;;;31.57;nan
11198;BME280;5655;48.744;9.162;2022-08-23T14:39:40;96214.16;;;31.88;nan
11198;BME280;5655;48.744;9.162;2022-08-23T14:42:06;96206.66;;;31.44;nan
11198;BME280;5655;48.744;9.162;2022-08-23T14:44:31;96210.44;;;31.36;nan
11198;BME280;5655;48.744;9.162;2022-08-23T14:46:57;96210.16;;;31.28;nan
11198;BME280;5655;48.744;9.162;2022-08-23T14:49:22;96206.41;;;31.03;nan
11198;BME280;5655;48.744;9.162;2022-08-23T14:51:48;96204.41;;;31.21;nan
11198;BME280;5655;48.744;9.162;2022-08-23T14:54:18;96205.66;;;31.14;nan
11198;BME280;5655;48.744;9.162;2022-08-23T14:56:44;96216.97;;;31.33;nan
11198;BME280;5655;48.744;9.162;2022-08-23T14:59:10;96217.97;;;31.07;nan
11198;BME280;5655;48.744;9.162;2022-08-23T15:01:36;96211.44;;;31.33;nan
11198;BME280;5655;48.744;9.162;2022-08-23T15:04:02;96206.91;;;31.30;nan
11198;BME280;5655;48.744;9.162;2022-08-23T15:06:28;96213.94;;;31.31;nan
11198;BME280;5655;48.744;9.162;2022-08-23T15:08:53;96213.69;;;31.12;nan
11198;BME280;5655;48.744;9.162;2022-08-23T15:11:19;96216.44;;;30.95;nan